createdAt,value
2022-12-11T00:02:47.086Z,46.40
2022-12-11T00:05:41.939Z,46.32
2022-12-11T00:08:34.679Z,46.21
2022-12-11T00:11:31.264Z,46.28
2022-12-11T00:14:23.988Z,46.24
2022-12-11T00:17:16.722Z,46.14
2022-12-11T00:20:11.116Z,46.24
2022-12-11T00:23:03.835Z,46.30
2022-12-11T00:25:56.602Z,46.21
2022-12-11T00:28:49.331Z,46.20
2022-12-11T00:31:42.139Z,46.22
2022-12-11T00:34:34.946Z,46.06
2022-12-11T00:37:29.146Z,46.14
2022-12-11T00:40:22.100Z,46.29
2022-12-11T00:43:16.097Z,46.06
2022-12-11T00:46:09.008Z,46.12
2022-12-11T00:49:01.796Z,46.14
2022-12-11T00:51:54.588Z,46.11
2022-12-11T00:54:47.386Z,46.02
2022-12-11T00:57:40.294Z,45.94
2022-12-11T01:00:33.196Z,46.09
2022-12-11T01:03:25.941Z,45.95
2022-12-11T01:06:20.693Z,46.13
2022-12-11T01:09:31.437Z,46.09
2022-12-11T01:12:24.219Z,45.85
2022-12-11T01:15:17.074Z,45.92
2022-12-11T01:18:09.940Z,45.84
2022-12-11T01:21:02.663Z,45.83
2022-12-11T01:23:55.429Z,45.88
2022-12-11T01:26:48.523Z,45.94
2022-12-11T01:29:41.261Z,45.89
2022-12-11T01:32:34.991Z,45.71
2022-12-11T01:35:27.797Z,45.86
2022-12-11T01:38:20.570Z,45.78
2022-12-11T01:41:13.467Z,45.85
2022-12-11T01:44:08.675Z,45.93
2022-12-11T01:47:01.381Z,45.83
2022-12-11T01:49:54.127Z,45.92
2022-12-11T01:52:47.797Z,45.87
2022-12-11T01:55:40.826Z,45.91
2022-12-11T01:58:36.369Z,45.73
2022-12-11T02:01:31.110Z,45.80
2022-12-11T02:04:24.303Z,45.74
2022-12-11T02:07:17.122Z,45.68
2022-12-11T02:10:12.266Z,45.83
2022-12-11T02:13:08.722Z,45.64
2022-12-11T02:16:05.090Z,45.67
2022-12-11T02:18:59.941Z,45.81
2022-12-11T02:21:54.270Z,45.85
2022-12-11T02:24:57.281Z,45.88
2022-12-11T02:27:56.569Z,45.88
2022-12-11T02:30:51.150Z,45.78
2022-12-11T02:33:48.409Z,45.63
2022-12-11T02:36:43.332Z,45.74
2022-12-11T02:39:36.360Z,45.52
2022-12-11T02:42:30.779Z,45.49
2022-12-11T02:45:24.039Z,45.53
2022-12-11T02:48:16.791Z,45.55
2022-12-11T02:51:09.743Z,45.67
2022-12-11T02:54:02.867Z,45.69
2022-12-11T02:56:58.594Z,45.65
2022-12-11T02:59:51.355Z,45.31
2022-12-11T03:02:44.714Z,45.41
2022-12-11T03:05:37.558Z,45.54
2022-12-11T03:08:30.370Z,45.55
2022-12-11T03:11:23.217Z,45.54
2022-12-11T03:14:15.966Z,45.39
2022-12-11T03:17:12.454Z,45.50
2022-12-11T03:20:07.091Z,45.50
2022-12-11T03:23:02.675Z,45.39
2022-12-11T03:25:57.155Z,45.49
2022-12-11T03:28:50.608Z,45.52
2022-12-11T03:31:44.638Z,45.40
2022-12-11T03:34:40.734Z,45.29
2022-12-11T03:37:34.414Z,45.46
2022-12-11T03:40:27.723Z,45.48
2022-12-11T03:43:20.499Z,45.49
2022-12-11T03:46:13.277Z,45.60
2022-12-11T03:49:07.130Z,45.62
2022-12-11T03:52:00.022Z,45.55
2022-12-11T03:54:52.745Z,45.55
2022-12-11T03:57:45.526Z,45.60
2022-12-11T04:00:38.517Z,45.45
2022-12-11T04:03:31.248Z,45.60
2022-12-11T04:06:24.355Z,45.40
2022-12-11T04:09:17.087Z,45.34
2022-12-11T04:12:09.878Z,45.39
2022-12-11T04:15:05.702Z,45.44
2022-12-11T04:18:15.791Z,45.41
2022-12-11T04:21:27.903Z,45.47
2022-12-11T04:24:20.650Z,45.38
2022-12-11T04:27:13.762Z,45.34
2022-12-11T04:30:08.232Z,45.52
2022-12-11T04:33:01.035Z,45.47
2022-12-11T04:35:53.763Z,45.31
2022-12-11T04:38:46.465Z,44.99
2022-12-11T04:41:41.249Z,45.04
2022-12-11T04:44:34.750Z,44.95
2022-12-11T04:47:28.184Z,44.87
2022-12-11T04:50:21.021Z,44.83
2022-12-11T04:53:14.185Z,45.02
2022-12-11T04:56:10.242Z,44.94
2022-12-11T04:59:03.008Z,45.02
2022-12-11T05:01:55.763Z,45.11
2022-12-11T05:04:48.526Z,44.94
2022-12-11T05:07:41.323Z,44.98
2022-12-11T05:10:34.054Z,45.11
2022-12-11T05:13:26.764Z,45.01
2022-12-11T05:16:19.668Z,44.86
2022-12-11T05:19:12.470Z,44.97
2022-12-11T05:22:05.186Z,44.94
2022-12-11T05:24:57.922Z,44.97
2022-12-11T05:27:50.621Z,45.02
2022-12-11T05:30:43.301Z,45.09
2022-12-11T05:33:36.051Z,44.86
2022-12-11T05:36:29.681Z,44.72
2022-12-11T05:39:22.432Z,44.78
2022-12-11T05:42:15.163Z,44.76
2022-12-11T05:45:10.325Z,44.85
2022-12-11T05:48:03.365Z,44.78
2022-12-11T05:51:05.437Z,44.72
2022-12-11T05:53:58.563Z,44.62
2022-12-11T05:56:52.456Z,44.49
2022-12-11T05:59:45.598Z,44.45
2022-12-11T06:02:39.246Z,44.61
2022-12-11T06:05:32.842Z,44.46
2022-12-11T06:08:25.893Z,44.43
2022-12-11T06:11:23.798Z,44.49
2022-12-11T06:14:16.999Z,44.49
2022-12-11T06:17:09.748Z,44.66
2022-12-11T06:20:02.516Z,44.64
2022-12-11T06:22:55.243Z,44.64
2022-12-11T06:25:47.973Z,44.60
2022-12-11T06:28:40.744Z,44.68
2022-12-11T06:31:33.556Z,44.51
2022-12-11T06:34:26.358Z,44.52
2022-12-11T06:37:19.107Z,44.22
2022-12-11T06:40:13.907Z,44.23
2022-12-11T06:43:06.659Z,44.17
2022-12-11T06:46:03.799Z,44.42
2022-12-11T06:48:57.487Z,44.18
2022-12-11T06:51:50.205Z,44.17
2022-12-11T06:54:43.217Z,44.32
2022-12-11T06:57:35.943Z,44.41
2022-12-11T07:00:28.672Z,44.21
2022-12-11T07:03:21.421Z,44.08
2022-12-11T07:06:14.181Z,44.27
2022-12-11T07:09:07.915Z,44.29
2022-12-11T07:12:00.620Z,44.35
2022-12-11T07:14:53.363Z,44.27
2022-12-11T07:17:46.143Z,44.30
2022-12-11T07:20:38.954Z,44.42
2022-12-11T07:23:31.763Z,44.48
2022-12-11T07:26:24.523Z,44.34
2022-12-11T07:29:17.256Z,44.37
2022-12-11T07:32:10.801Z,44.48
2022-12-11T07:35:03.882Z,44.44
2022-12-11T07:37:56.785Z,44.30
2022-12-11T07:40:49.756Z,44.26
2022-12-11T07:43:42.714Z,43.63
2022-12-11T07:46:35.956Z,43.59
2022-12-11T07:49:29.352Z,43.78
2022-12-11T07:52:22.400Z,43.79
2022-12-11T07:55:15.246Z,43.67
2022-12-11T07:58:08.762Z,43.78
2022-12-11T08:01:03.817Z,44.22
2022-12-11T08:03:57.529Z,44.08
2022-12-11T08:06:50.410Z,44.42
2022-12-11T08:09:43.492Z,44.48
2022-12-11T08:12:36.546Z,44.50
2022-12-11T08:15:29.652Z,44.54
2022-12-11T08:18:22.633Z,44.37
2022-12-11T08:21:16.638Z,44.50
2022-12-11T08:24:10.677Z,44.38
2022-12-11T08:27:04.183Z,44.40
2022-12-11T08:29:57.265Z,44.47
2022-12-11T08:32:53.294Z,44.71
2022-12-11T08:35:46.656Z,44.96
2022-12-11T08:38:40.529Z,44.85
2022-12-11T08:41:33.520Z,45.05
2022-12-11T08:44:27.365Z,44.82
2022-12-11T08:47:20.761Z,44.96
2022-12-11T08:50:14.526Z,44.96
2022-12-11T08:53:07.661Z,45.09
2022-12-11T08:56:05.344Z,44.97
2022-12-11T08:59:00.175Z,44.99
2022-12-11T09:01:53.243Z,45.17
2022-12-11T09:04:46.318Z,45.02
2022-12-11T09:07:40.100Z,45.08
2022-12-11T09:10:33.646Z,45.07
2022-12-11T09:13:26.475Z,45.18
2022-12-11T09:16:20.504Z,45.20
2022-12-11T09:19:14.723Z,44.86
2022-12-11T09:22:09.859Z,44.35
2022-12-11T09:25:02.967Z,44.13
2022-12-11T09:27:55.819Z,43.75
2022-12-11T09:30:48.645Z,43.33
2022-12-11T09:33:41.406Z,43.11
2022-12-11T09:36:34.631Z,42.72
2022-12-11T09:39:27.384Z,42.41
2022-12-11T09:42:22.494Z,42.27
2022-12-11T09:45:16.301Z,40.96
2022-12-11T09:48:09.252Z,41.00
2022-12-11T09:51:02.624Z,41.42
2022-12-11T09:53:55.393Z,41.70
2022-12-11T09:56:50.759Z,41.74
2022-12-11T09:59:46.775Z,42.27
2022-12-11T10:02:46.041Z,42.52
2022-12-11T10:05:40.055Z,41.96
2022-12-11T10:08:34.678Z,42.04
2022-12-11T10:11:36.758Z,42.01
2022-12-11T10:14:34.502Z,41.83
2022-12-11T10:17:29.267Z,42.04
2022-12-11T10:20:23.927Z,42.17
2022-12-11T10:23:19.737Z,42.00
2022-12-11T10:26:14.022Z,42.13
2022-12-11T10:29:10.498Z,42.25
2022-12-11T10:32:03.624Z,42.29
2022-12-11T10:34:59.972Z,41.85
2022-12-11T10:37:53.228Z,41.45
2022-12-11T10:40:48.297Z,41.25
2022-12-11T10:43:42.547Z,40.63
2022-12-11T10:46:37.382Z,38.90
2022-12-11T10:49:31.151Z,39.29
2022-12-11T10:52:25.385Z,39.42
2022-12-11T10:55:23.740Z,39.27
2022-12-11T10:58:19.492Z,39.42
2022-12-11T11:01:15.539Z,39.54
2022-12-11T11:04:15.184Z,40.19
2022-12-11T11:07:13.811Z,39.30
2022-12-11T11:10:19.329Z,39.55
2022-12-11T11:13:16.771Z,40.01
2022-12-11T11:16:13.374Z,40.12
2022-12-11T11:19:07.073Z,40.45
2022-12-11T11:22:02.269Z,40.07
2022-12-11T11:24:57.505Z,39.63
2022-12-11T11:27:52.433Z,39.54
2022-12-11T11:30:55.193Z,39.86
2022-12-11T11:33:54.301Z,39.80
2022-12-11T11:36:47.642Z,40.18
2022-12-11T11:39:41.684Z,40.49
2022-12-11T11:42:40.506Z,40.77
2022-12-11T11:45:35.815Z,40.92
2022-12-11T11:48:45.392Z,41.32
2022-12-11T11:51:40.279Z,41.78
2022-12-11T11:54:34.853Z,41.92
2022-12-11T11:57:31.053Z,42.21
2022-12-11T12:00:30.367Z,42.17
2022-12-11T12:03:27.103Z,42.33
2022-12-11T12:06:23.748Z,42.33
2022-12-11T12:09:23.681Z,42.49
2022-12-11T12:12:26.464Z,42.57
2022-12-11T12:18:52.806Z,42.85
2022-12-11T12:21:48.389Z,42.72
2022-12-11T12:24:44.842Z,42.77
2022-12-11T12:27:51.960Z,42.99
2022-12-11T12:30:50.029Z,42.79
2022-12-11T12:33:48.917Z,42.87
2022-12-11T12:36:45.051Z,42.91
2022-12-11T12:39:41.281Z,42.85
2022-12-11T12:42:39.445Z,42.97
2022-12-11T12:45:34.207Z,42.96
2022-12-11T12:48:27.564Z,42.70
2022-12-11T12:51:20.607Z,42.78
2022-12-11T12:54:16.556Z,42.86
2022-12-11T12:57:10.047Z,42.90
2022-12-11T13:00:08.134Z,43.00
2022-12-11T13:03:14.813Z,42.79
2022-12-11T13:06:09.438Z,42.71
2022-12-11T13:09:14.378Z,42.64
2022-12-11T13:12:16.229Z,42.77
2022-12-11T13:15:28.136Z,42.78
2022-12-11T13:18:38.035Z,42.66
2022-12-11T13:21:33.627Z,42.60
2022-12-11T13:24:29.727Z,42.72
2022-12-11T13:27:28.576Z,42.80
2022-12-11T13:30:27.117Z,42.87
2022-12-11T13:33:20.792Z,42.86
2022-12-11T13:36:28.884Z,42.93
2022-12-11T13:39:24.344Z,42.90
2022-12-11T13:42:25.092Z,42.96
2022-12-11T13:45:23.313Z,43.08
2022-12-11T13:48:20.571Z,42.86
2022-12-11T13:51:20.053Z,43.00
2022-12-11T13:54:18.713Z,43.05
2022-12-11T13:57:18.715Z,43.03
2022-12-11T14:00:25.237Z,42.81
2022-12-11T14:03:18.236Z,42.73
2022-12-11T14:06:18.597Z,42.76
2022-12-11T14:09:15.556Z,42.91
2022-12-11T14:12:14.328Z,42.93
2022-12-11T14:15:13.115Z,42.88
2022-12-11T14:18:06.952Z,42.76
2022-12-11T14:21:00.908Z,43.05
2022-12-11T14:23:56.674Z,42.97
2022-12-11T14:26:52.909Z,42.99
2022-12-11T14:29:46.055Z,43.01
2022-12-11T14:32:41.229Z,42.90
2022-12-11T14:35:39.108Z,42.77
2022-12-11T14:38:34.201Z,42.78
2022-12-11T14:41:29.635Z,42.84
2022-12-11T14:44:23.028Z,42.94
2022-12-11T14:47:17.799Z,42.65
2022-12-11T14:50:13.144Z,42.73
2022-12-11T14:53:08.522Z,42.77
2022-12-11T14:56:02.898Z,42.56
2022-12-11T14:58:58.583Z,42.35
2022-12-11T15:02:00.159Z,42.27
2022-12-11T15:05:21.845Z,42.27
2022-12-11T15:08:25.129Z,42.34
2022-12-11T15:11:18.529Z,42.26
2022-12-11T15:14:12.530Z,42.38
2022-12-11T15:17:06.006Z,42.45
2022-12-11T15:20:02.164Z,42.25
2022-12-11T15:22:55.645Z,42.58
2022-12-11T15:25:54.236Z,42.58
2022-12-11T15:28:47.378Z,42.58
2022-12-11T15:31:40.430Z,42.51
2022-12-11T15:34:43.404Z,42.78
2022-12-11T15:37:38.540Z,42.55
2022-12-11T15:40:31.869Z,42.08
2022-12-11T15:43:24.978Z,42.33
2022-12-11T15:46:17.973Z,42.44
2022-12-11T15:49:14.363Z,42.22
2022-12-11T15:52:07.813Z,42.32
2022-12-11T15:55:01.071Z,42.44
2022-12-11T15:57:55.437Z,42.21
2022-12-11T16:00:48.679Z,42.47
2022-12-11T16:03:41.601Z,42.07
2022-12-11T16:06:34.939Z,42.15
2022-12-11T16:09:27.842Z,42.31
2022-12-11T16:12:20.961Z,42.13
2022-12-11T16:15:21.425Z,41.88
2022-12-11T16:18:18.297Z,41.57
2022-12-11T16:21:13.570Z,41.47
2022-12-11T16:24:09.515Z,41.76
2022-12-11T16:27:02.649Z,41.93
2022-12-11T16:29:56.337Z,42.11
2022-12-11T16:32:49.668Z,42.37
2022-12-11T16:35:43.217Z,42.32
2022-12-11T16:38:37.185Z,42.28
2022-12-11T16:41:30.271Z,42.34
2022-12-11T16:44:24.342Z,42.23
2022-12-11T16:47:17.417Z,42.33
2022-12-11T16:50:11.584Z,42.23
2022-12-11T16:53:04.974Z,42.27
2022-12-11T16:55:58.480Z,42.22
2022-12-11T16:58:51.853Z,42.09
2022-12-11T17:01:45.450Z,42.23
2022-12-11T17:04:38.879Z,42.03
2022-12-11T17:07:34.867Z,42.08
2022-12-11T17:10:28.603Z,41.97
2022-12-11T17:13:21.508Z,42.02
2022-12-11T17:16:16.123Z,42.16
2022-12-11T17:19:09.486Z,41.97
2022-12-11T17:22:02.934Z,41.97
2022-12-11T17:24:56.656Z,41.91
2022-12-11T17:27:50.039Z,41.82
2022-12-11T17:30:44.896Z,41.78
2022-12-11T17:33:38.221Z,41.61
2022-12-11T17:36:31.276Z,41.51
2022-12-11T17:39:24.334Z,41.75
2022-12-11T17:42:17.822Z,41.47
2022-12-11T17:45:12.428Z,41.59
2022-12-11T17:48:05.796Z,41.40
2022-12-11T17:50:58.793Z,41.54
2022-12-11T17:53:51.833Z,41.26
2022-12-11T17:56:45.565Z,41.44
2022-12-11T17:59:38.879Z,41.27
2022-12-11T18:02:32.122Z,41.33
2022-12-11T18:05:25.380Z,41.36
2022-12-11T18:08:19.068Z,41.38
2022-12-11T18:11:13.527Z,41.31
2022-12-11T18:14:06.633Z,41.66
2022-12-11T18:17:00.089Z,41.39
2022-12-11T18:19:53.376Z,41.45
2022-12-11T18:22:47.035Z,41.46
2022-12-11T18:25:40.127Z,41.42
2022-12-11T18:28:33.887Z,41.34
2022-12-11T18:31:27.060Z,41.57
2022-12-11T18:34:20.269Z,41.61
2022-12-11T18:37:13.683Z,41.82
2022-12-11T18:40:08.712Z,41.82
2022-12-11T18:43:01.864Z,42.11
2022-12-11T18:45:56.554Z,42.05
2022-12-11T18:48:49.650Z,42.30
2022-12-11T18:51:42.863Z,42.34
2022-12-11T18:54:36.152Z,42.49
2022-12-11T18:57:29.283Z,42.49
2022-12-11T19:00:23.336Z,42.72
2022-12-11T19:03:16.862Z,42.79
2022-12-11T19:06:11.703Z,42.80
2022-12-11T19:09:05.353Z,43.05
2022-12-11T19:11:58.779Z,43.16
2022-12-11T19:14:51.997Z,43.31
2022-12-11T19:17:45.431Z,43.41
2022-12-11T19:20:57.662Z,43.38
2022-12-11T19:23:56.648Z,43.40
2022-12-11T19:26:50.621Z,43.59
2022-12-11T19:29:44.365Z,43.54
2022-12-11T19:32:40.474Z,43.60
2022-12-11T19:35:35.212Z,43.50
2022-12-11T19:38:29.061Z,43.26
2022-12-11T19:41:23.272Z,43.37
2022-12-11T19:44:16.697Z,43.45
2022-12-11T19:47:10.436Z,43.20
2022-12-11T19:50:07.016Z,43.14
2022-12-11T19:53:00.106Z,43.19
2022-12-11T19:55:53.987Z,42.98
2022-12-11T19:58:47.155Z,43.09
2022-12-11T20:01:40.615Z,43.11
2022-12-11T20:04:33.735Z,42.91
2022-12-11T20:07:30.668Z,42.86
2022-12-11T20:10:24.309Z,42.88
2022-12-11T20:13:17.755Z,42.66
2022-12-11T20:16:11.914Z,42.62
2022-12-11T20:19:05.876Z,42.64
2022-12-11T20:21:58.923Z,42.59
2022-12-11T20:24:51.842Z,42.59
2022-12-11T20:27:45.391Z,42.56
2022-12-11T20:30:38.764Z,42.32
2022-12-11T20:33:31.802Z,42.47
2022-12-11T20:36:24.962Z,42.47
2022-12-11T20:39:18.025Z,42.37
2022-12-11T20:42:12.019Z,42.31
2022-12-11T20:45:06.127Z,42.24
2022-12-11T20:47:59.424Z,42.31
2022-12-11T20:50:52.429Z,42.34
2022-12-11T20:53:45.512Z,42.27
2022-12-11T20:56:38.589Z,42.27
2022-12-11T20:59:32.072Z,42.05
2022-12-11T21:02:25.206Z,42.10
2022-12-11T21:05:18.247Z,41.97
2022-12-11T21:08:11.324Z,41.89
2022-12-11T21:11:04.354Z,41.81
2022-12-11T21:13:57.531Z,41.99
2022-12-11T21:16:50.960Z,42.13
2022-12-11T21:19:44.145Z,42.09
2022-12-11T21:22:37.436Z,42.33
2022-12-11T21:25:30.509Z,42.39
2022-12-11T21:28:23.897Z,42.50
2022-12-11T21:31:18.989Z,42.30
2022-12-11T21:34:12.187Z,42.21
2022-12-11T21:37:05.321Z,42.37
2022-12-11T21:43:34.927Z,42.39
2022-12-11T21:46:28.731Z,42.29
2022-12-11T21:49:21.845Z,42.39
2022-12-11T21:52:15.267Z,42.34
2022-12-11T21:55:09.586Z,42.54
2022-12-11T21:58:03.019Z,42.53
2022-12-11T22:00:56.551Z,42.25
2022-12-11T22:03:49.541Z,42.44
2022-12-11T22:06:43.707Z,42.50
2022-12-11T22:09:36.827Z,42.21
2022-12-11T22:12:30.698Z,42.39
2022-12-11T22:15:24.406Z,42.35
2022-12-11T22:18:18.585Z,42.05
2022-12-11T22:21:11.838Z,41.80
2022-12-11T22:24:05.244Z,41.94
2022-12-11T22:26:58.240Z,41.95
2022-12-11T22:29:51.291Z,41.76
2022-12-11T22:32:45.344Z,41.40
2022-12-11T22:35:38.566Z,41.76
2022-12-11T22:38:32.666Z,41.79
2022-12-11T22:41:27.923Z,41.51
2022-12-11T22:44:22.620Z,41.46
2022-12-11T22:47:15.645Z,41.38
2022-12-11T22:50:10.106Z,41.05
2022-12-11T22:53:03.327Z,41.00
2022-12-11T22:55:56.570Z,41.06
2022-12-11T22:58:49.583Z,41.05
2022-12-11T23:01:42.634Z,41.04
2022-12-11T23:04:35.940Z,40.65
2022-12-11T23:07:29.925Z,40.94
2022-12-11T23:10:23.004Z,41.16
2022-12-11T23:13:16.073Z,41.20
2022-12-11T23:16:09.544Z,41.39
2022-12-11T23:19:02.781Z,41.49
2022-12-11T23:21:56.052Z,41.75
2022-12-11T23:24:49.290Z,41.78
2022-12-11T23:27:42.649Z,41.85
2022-12-11T23:30:36.121Z,41.89
2022-12-11T23:33:31.882Z,42.08
2022-12-11T23:36:25.207Z,41.95
2022-12-11T23:39:18.602Z,42.06
2022-12-11T23:42:12.080Z,41.83
2022-12-11T23:45:05.461Z,41.96
2022-12-11T23:47:58.367Z,42.01
2022-12-11T23:50:56.540Z,41.95
2022-12-11T23:53:49.294Z,41.97
2022-12-11T23:56:42.090Z,42.02
2022-12-11T23:59:34.771Z,41.98
